createdAt,value
2018-10-03T00:01:29.912Z,9.90
2018-10-03T00:03:58.383Z,9.90
2018-10-03T00:06:26.867Z,9.90
2018-10-03T00:08:55.339Z,10.00
2018-10-03T00:11:23.828Z,10.00
2018-10-03T00:13:52.323Z,10.00
2018-10-03T00:16:20.805Z,10.00
2018-10-03T00:18:49.279Z,10.00
2018-10-03T00:21:17.801Z,10.00
2018-10-03T00:23:46.287Z,10.00
2018-10-03T00:26:14.778Z,10.00
2018-10-03T00:28:43.269Z,10.00
2018-10-03T00:31:11.779Z,10.00
2018-10-03T00:33:40.245Z,10.00
2018-10-03T00:36:08.747Z,10.00
2018-10-03T00:38:37.225Z,10.00
2018-10-03T00:41:06.059Z,10.00
2018-10-03T00:43:34.531Z,10.00
2018-10-03T00:46:03.019Z,10.00
2018-10-03T00:48:31.513Z,10.00
2018-10-03T00:50:59.986Z,9.90
2018-10-03T00:53:28.472Z,9.90
2018-10-03T00:55:56.972Z,9.90
2018-10-03T00:58:25.433Z,9.90
2018-10-03T01:00:53.939Z,9.90
2018-10-03T01:03:22.425Z,9.90
2018-10-03T01:05:50.905Z,9.90
2018-10-03T01:08:19.381Z,9.90
2018-10-03T01:10:47.932Z,9.90
2018-10-03T01:13:16.437Z,9.90
2018-10-03T01:15:44.926Z,10.00
2018-10-03T01:18:13.424Z,9.90
2018-10-03T01:20:41.911Z,9.90
2018-10-03T01:23:10.408Z,9.90
2018-10-03T01:25:38.882Z,9.90
2018-10-03T01:28:07.409Z,9.80
2018-10-03T01:30:35.918Z,9.80
2018-10-03T01:33:04.402Z,9.80
2018-10-03T01:35:32.932Z,9.80
2018-10-03T01:38:01.418Z,9.80
2018-10-03T01:40:29.885Z,9.80
2018-10-03T01:42:58.380Z,9.80
2018-10-03T01:45:26.897Z,9.70
2018-10-03T01:47:55.398Z,9.80
2018-10-03T01:50:23.878Z,9.80
2018-10-03T01:52:52.361Z,9.80
2018-10-03T01:55:20.837Z,9.80
2018-10-03T01:57:49.361Z,9.80
2018-10-03T02:00:17.854Z,9.80
2018-10-03T02:02:46.315Z,9.80
2018-10-03T02:05:14.791Z,9.80
2018-10-03T02:07:43.295Z,9.80
2018-10-03T02:10:11.785Z,9.80
2018-10-03T02:12:40.261Z,9.80
2018-10-03T02:15:08.736Z,9.80
2018-10-03T02:17:37.239Z,9.90
2018-10-03T02:20:06.379Z,9.90
2018-10-03T02:22:34.875Z,9.90
2018-10-03T02:25:03.397Z,9.90
2018-10-03T02:27:31.955Z,9.80
2018-10-03T02:30:00.452Z,9.80
2018-10-03T02:32:29.004Z,9.80
2018-10-03T02:34:57.513Z,9.80
2018-10-03T02:37:26.008Z,9.80
2018-10-03T02:39:54.492Z,9.80
2018-10-03T02:42:22.990Z,9.80
2018-10-03T02:44:51.468Z,9.80
2018-10-03T02:47:19.968Z,9.80
2018-10-03T02:49:48.494Z,9.70
2018-10-03T02:52:16.979Z,9.70
2018-10-03T02:54:45.479Z,9.80
2018-10-03T02:57:13.995Z,9.80
2018-10-03T02:59:42.484Z,9.80
2018-10-03T03:02:10.974Z,9.80
2018-10-03T03:04:39.517Z,9.80
2018-10-03T03:07:08.005Z,9.70
2018-10-03T03:09:36.517Z,9.80
2018-10-03T03:12:04.991Z,9.80
2018-10-03T03:14:33.479Z,9.80
2018-10-03T03:17:01.969Z,9.80
2018-10-03T03:19:30.456Z,9.80
2018-10-03T03:21:58.959Z,9.80
2018-10-03T03:24:27.428Z,9.80
2018-10-03T03:26:55.945Z,9.80
2018-10-03T03:29:24.448Z,9.80
2018-10-03T03:31:52.949Z,9.80
2018-10-03T03:34:21.445Z,9.80
2018-10-03T03:36:49.896Z,9.80
2018-10-03T03:39:18.375Z,9.80
2018-10-03T03:41:46.953Z,9.80
2018-10-03T03:44:15.423Z,9.80
2018-10-03T03:46:43.901Z,9.80
2018-10-03T03:49:12.431Z,9.80
2018-10-03T03:51:40.911Z,9.80
2018-10-03T03:54:09.391Z,9.80
2018-10-03T03:56:38.219Z,9.80
2018-10-03T03:59:06.700Z,9.90
2018-10-03T04:01:35.179Z,9.90
2018-10-03T04:04:03.761Z,9.90
2018-10-03T04:06:32.246Z,9.90
2018-10-03T04:09:00.716Z,9.90
2018-10-03T04:11:29.254Z,9.80
2018-10-03T04:13:57.746Z,9.80
2018-10-03T04:16:26.252Z,9.80
2018-10-03T04:18:54.736Z,9.80
2018-10-03T04:21:29.676Z,9.80
2018-10-03T04:23:58.174Z,9.70
2018-10-03T04:26:26.644Z,9.70
2018-10-03T04:28:55.116Z,9.70
2018-10-03T04:31:23.624Z,9.80
2018-10-03T04:33:52.086Z,9.80
2018-10-03T04:36:20.621Z,9.80
2018-10-03T04:38:49.120Z,9.80
2018-10-03T04:41:17.594Z,9.80
2018-10-03T04:43:46.098Z,9.70
2018-10-03T04:46:14.586Z,9.70
2018-10-03T04:48:43.071Z,9.70
2018-10-03T04:51:11.567Z,9.70
2018-10-03T04:53:40.059Z,9.70
2018-10-03T04:56:08.602Z,9.70
2018-10-03T04:58:37.465Z,9.70
2018-10-03T05:01:06.689Z,9.70
2018-10-03T05:03:35.249Z,9.80
2018-10-03T05:06:03.769Z,9.80
2018-10-03T05:08:32.331Z,9.80
2018-10-03T05:11:00.859Z,9.80
2018-10-03T05:13:29.395Z,9.80
2018-10-03T05:15:57.875Z,9.80
2018-10-03T05:18:26.393Z,9.80
2018-10-03T05:20:54.875Z,9.80
2018-10-03T05:23:23.357Z,9.80
2018-10-03T05:25:51.866Z,9.80
2018-10-03T05:28:20.343Z,9.80
2018-10-03T05:30:48.837Z,9.90
2018-10-03T05:33:17.361Z,9.90
2018-10-03T05:35:45.871Z,9.90
2018-10-03T05:38:14.388Z,10.00
2018-10-03T05:40:42.887Z,10.00
2018-10-03T05:43:11.362Z,10.00
2018-10-03T05:45:39.856Z,10.00
2018-10-03T05:48:08.330Z,10.00
2018-10-03T05:50:36.832Z,10.10
2018-10-03T05:53:05.344Z,10.10
2018-10-03T05:55:33.857Z,10.00
2018-10-03T05:58:02.357Z,10.10
2018-10-03T06:00:30.875Z,10.10
2018-10-03T06:02:59.441Z,10.00
2018-10-03T06:05:27.942Z,10.00
2018-10-03T06:07:56.424Z,10.00
2018-10-03T06:10:24.901Z,10.00
2018-10-03T06:12:53.402Z,10.00
2018-10-03T06:15:21.876Z,10.10
2018-10-03T06:17:50.362Z,10.10
2018-10-03T06:20:18.860Z,10.20
2018-10-03T06:22:47.358Z,10.20
2018-10-03T06:25:15.845Z,10.30
2018-10-03T06:27:44.403Z,10.30
2018-10-03T06:30:12.957Z,10.40
2018-10-03T06:32:41.448Z,10.40
2018-10-03T06:35:09.955Z,10.40
2018-10-03T06:37:38.409Z,10.50
2018-10-03T06:40:07.387Z,10.60
2018-10-03T06:42:35.873Z,10.70
2018-10-03T06:45:04.533Z,10.70
2018-10-03T06:47:33.050Z,10.80
2018-10-03T06:50:01.522Z,10.80
2018-10-03T06:52:29.994Z,10.90
2018-10-03T06:54:58.476Z,10.90
2018-10-03T06:57:26.985Z,10.90
2018-10-03T06:59:55.511Z,11.00
2018-10-03T07:02:23.990Z,11.00
2018-10-03T07:04:52.477Z,11.10
2018-10-03T07:07:21.027Z,11.10
2018-10-03T07:09:49.514Z,11.10
2018-10-03T07:12:17.994Z,11.10
2018-10-03T07:14:46.496Z,11.20
2018-10-03T07:17:15.013Z,11.20
2018-10-03T07:19:43.557Z,11.20
2018-10-03T07:22:12.067Z,11.20
2018-10-03T07:24:40.534Z,11.30
2018-10-03T07:27:09.009Z,11.30
2018-10-03T07:29:37.526Z,11.30
2018-10-03T07:32:06.061Z,11.30
2018-10-03T07:34:34.547Z,11.30
2018-10-03T07:37:03.038Z,11.30
2018-10-03T07:39:31.516Z,11.30
2018-10-03T07:42:00.097Z,11.30
2018-10-03T07:44:28.642Z,11.40
2018-10-03T07:46:57.137Z,11.40
2018-10-03T07:49:25.697Z,11.50
2018-10-03T07:51:54.238Z,11.50
2018-10-03T07:54:22.738Z,11.60
2018-10-03T07:56:51.344Z,11.60
2018-10-03T07:59:19.835Z,11.70
2018-10-03T08:01:48.320Z,11.70
2018-10-03T08:04:16.849Z,11.80
2018-10-03T08:06:45.344Z,11.90
2018-10-03T08:09:13.929Z,12.00
2018-10-03T08:11:42.471Z,12.00
2018-10-03T08:14:10.981Z,12.20
2018-10-03T08:16:39.483Z,12.30
2018-10-03T08:19:07.991Z,12.40
2018-10-03T08:21:36.483Z,12.50
2018-10-03T08:24:04.991Z,12.60
2018-10-03T08:26:33.497Z,12.80
2018-10-03T08:29:01.999Z,12.90
2018-10-03T08:31:30.487Z,12.90
2018-10-03T08:33:58.966Z,13.00
2018-10-03T08:36:27.470Z,13.10
2018-10-03T08:38:55.982Z,13.20
2018-10-03T08:41:24.475Z,13.50
2018-10-03T08:43:52.990Z,13.80
2018-10-03T08:46:21.453Z,14.00
2018-10-03T08:48:49.952Z,14.00
2018-10-03T08:51:18.490Z,14.10
2018-10-03T08:53:46.992Z,14.10
2018-10-03T08:56:15.472Z,14.30
2018-10-03T08:58:43.966Z,14.50
2018-10-03T09:01:12.482Z,14.60
2018-10-03T09:03:40.964Z,14.70
2018-10-03T09:06:09.484Z,14.60
2018-10-03T09:08:37.955Z,14.70
2018-10-03T09:11:06.480Z,15.00
2018-10-03T09:13:34.984Z,15.20
2018-10-03T09:16:03.462Z,15.20
2018-10-03T09:18:32.288Z,15.10
2018-10-03T09:21:00.786Z,15.10
2018-10-03T09:23:29.263Z,15.10
2018-10-03T09:25:57.792Z,15.10
2018-10-03T09:28:26.316Z,15.00
2018-10-03T09:30:54.798Z,15.00
2018-10-03T09:33:23.282Z,14.90
2018-10-03T09:35:51.756Z,14.90
2018-10-03T09:38:20.239Z,15.00
2018-10-03T09:40:48.739Z,15.00
2018-10-03T09:43:17.253Z,15.00
2018-10-03T09:45:45.734Z,15.00
2018-10-03T09:48:14.237Z,15.10
2018-10-03T09:50:42.730Z,15.10
2018-10-03T09:53:11.207Z,15.10
2018-10-03T09:55:39.783Z,15.10
2018-10-03T09:58:08.269Z,15.20
2018-10-03T10:01:44.649Z,14.90
2018-10-03T10:04:13.123Z,15.00
2018-10-03T10:06:41.631Z,14.90
2018-10-03T10:09:11.092Z,15.00
2018-10-03T10:11:39.845Z,15.20
2018-10-03T10:14:08.229Z,15.30
2018-10-03T10:16:36.743Z,15.40
2018-10-03T10:19:05.446Z,15.50
2018-10-03T10:21:33.952Z,15.60
2018-10-03T10:24:02.483Z,15.70
2018-10-03T10:26:30.967Z,15.60
2018-10-03T10:28:59.451Z,15.70
2018-10-03T10:31:28.024Z,15.70
2018-10-03T10:33:56.554Z,15.80
2018-10-03T10:36:25.048Z,16.00
2018-10-03T10:38:53.524Z,16.10
2018-10-03T10:41:22.212Z,16.20
2018-10-03T10:43:50.571Z,16.30
2018-10-03T10:46:19.070Z,16.40
2018-10-03T10:48:47.584Z,16.40
2018-10-03T10:51:16.094Z,16.40
2018-10-03T10:53:44.600Z,16.40
2018-10-03T10:56:13.129Z,16.40
2018-10-03T10:58:41.636Z,16.40
2018-10-03T11:01:10.147Z,16.40
2018-10-03T11:03:38.720Z,16.50
2018-10-03T11:06:07.226Z,16.40
2018-10-03T11:08:35.686Z,16.50
2018-10-03T11:11:04.210Z,16.50
2018-10-03T11:13:32.694Z,16.50
2018-10-03T11:16:01.189Z,16.50
2018-10-03T11:18:29.712Z,16.50
2018-10-03T11:20:58.220Z,16.50
2018-10-03T11:23:26.755Z,16.40
2018-10-03T11:25:55.499Z,16.30
2018-10-03T11:28:24.003Z,16.30
2018-10-03T11:30:52.504Z,16.30
2018-10-03T11:33:21.036Z,16.30
2018-10-03T11:35:49.515Z,16.10
2018-10-03T11:38:18.046Z,16.10
2018-10-03T11:40:46.491Z,16.10
2018-10-03T11:43:14.985Z,16.10
2018-10-03T11:45:43.483Z,16.10
2018-10-03T11:48:12.067Z,16.20
2018-10-03T11:50:40.619Z,16.20
2018-10-03T11:53:09.109Z,16.40
2018-10-03T11:55:37.602Z,16.40
2018-10-03T11:58:06.091Z,16.40
2018-10-03T12:00:34.567Z,16.50
2018-10-03T12:03:03.173Z,16.50
2018-10-03T12:05:31.545Z,16.50
2018-10-03T12:08:00.068Z,16.50
2018-10-03T12:10:28.569Z,16.60
2018-10-03T12:12:57.067Z,16.50
2018-10-03T12:15:25.547Z,16.50
2018-10-03T12:17:54.143Z,16.50
2018-10-03T12:20:22.704Z,16.60
2018-10-03T12:22:51.183Z,16.60
2018-10-03T12:25:19.741Z,16.60
2018-10-03T12:27:48.184Z,16.60
2018-10-03T12:30:16.654Z,16.60
2018-10-03T12:32:45.136Z,16.70
2018-10-03T12:35:18.054Z,16.70
2018-10-03T12:37:46.561Z,16.70
2018-10-03T12:40:15.080Z,16.60
2018-10-03T12:42:43.613Z,16.60
2018-10-03T12:45:12.177Z,16.70
2018-10-03T12:47:40.606Z,16.70
2018-10-03T12:50:09.108Z,16.80
2018-10-03T12:52:37.606Z,16.90
2018-10-03T12:55:06.678Z,16.90
2018-10-03T12:57:35.168Z,16.90
2018-10-03T13:00:03.715Z,16.90
2018-10-03T13:02:32.337Z,16.90
2018-10-03T13:05:00.854Z,16.90
2018-10-03T13:07:29.351Z,17.00
2018-10-03T13:09:57.851Z,17.10
2018-10-03T13:12:26.381Z,17.10
2018-10-03T13:14:54.857Z,17.10
2018-10-03T13:17:23.334Z,17.10
2018-10-03T13:19:51.829Z,17.10
2018-10-03T13:22:20.299Z,17.00
2018-10-03T13:24:48.842Z,16.90
2018-10-03T13:27:17.351Z,16.90
2018-10-03T13:29:45.829Z,16.90
2018-10-03T13:32:14.334Z,16.90
2018-10-03T13:34:42.887Z,16.90
2018-10-03T13:37:11.358Z,16.90
2018-10-03T13:39:39.869Z,17.00
2018-10-03T13:42:08.418Z,16.90
2018-10-03T13:44:36.902Z,16.90
2018-10-03T13:47:05.575Z,16.90
2018-10-03T13:49:34.060Z,17.00
2018-10-03T13:52:02.562Z,17.00
2018-10-03T13:54:31.052Z,16.90
2018-10-03T13:56:59.630Z,16.90
2018-10-03T13:59:28.132Z,16.90
2018-10-03T14:01:56.748Z,16.90
2018-10-03T14:04:25.164Z,16.90
2018-10-03T14:06:53.700Z,16.90
2018-10-03T14:09:22.165Z,16.80
2018-10-03T14:11:50.698Z,16.70
2018-10-03T14:14:19.197Z,16.70
2018-10-03T14:16:47.724Z,16.70
2018-10-03T14:19:16.235Z,16.70
2018-10-03T14:21:44.739Z,16.70
2018-10-03T14:24:13.244Z,16.70
2018-10-03T14:26:41.731Z,16.60
2018-10-03T14:29:10.391Z,16.60
2018-10-03T14:31:38.879Z,16.60
2018-10-03T14:34:07.417Z,16.60
2018-10-03T14:36:35.921Z,16.50
2018-10-03T14:39:05.603Z,16.50
2018-10-03T14:41:34.101Z,16.50
2018-10-03T14:44:02.588Z,16.40
2018-10-03T14:46:31.074Z,16.40
2018-10-03T14:48:59.597Z,16.40
2018-10-03T14:51:28.115Z,16.40
2018-10-03T14:53:56.689Z,16.40
2018-10-03T14:56:25.190Z,16.30
2018-10-03T14:58:53.700Z,16.30
2018-10-03T15:01:22.228Z,16.30
2018-10-03T15:03:50.727Z,16.20
2018-10-03T15:06:19.216Z,16.20
2018-10-03T15:08:47.702Z,16.20
2018-10-03T15:11:16.218Z,16.10
2018-10-03T15:13:44.702Z,16.00
2018-10-03T15:16:13.210Z,16.00
2018-10-03T15:18:41.739Z,16.00
2018-10-03T15:21:10.219Z,16.00
2018-10-03T15:23:38.710Z,16.00
2018-10-03T15:26:07.255Z,16.00
2018-10-03T15:28:35.744Z,15.90
2018-10-03T15:31:04.255Z,15.90
2018-10-03T15:33:32.784Z,15.90
2018-10-03T15:36:01.281Z,15.90
2018-10-03T15:38:29.752Z,15.80
2018-10-03T15:40:58.291Z,15.90
2018-10-03T15:43:26.774Z,15.90
2018-10-03T15:45:55.297Z,15.90
2018-10-03T15:48:23.767Z,15.90
2018-10-03T15:50:52.281Z,15.90
2018-10-03T15:53:20.767Z,15.90
2018-10-03T15:55:49.247Z,15.90
2018-10-03T15:58:17.730Z,15.80
2018-10-03T16:00:46.228Z,15.90
2018-10-03T16:03:14.751Z,15.90
2018-10-03T16:05:43.281Z,15.80
2018-10-03T16:08:11.819Z,15.80
2018-10-03T16:10:40.433Z,15.70
2018-10-03T16:13:09.056Z,15.70
2018-10-03T16:15:37.612Z,15.60
2018-10-03T16:18:06.233Z,15.60
2018-10-03T16:20:34.961Z,15.50
2018-10-03T16:23:03.496Z,15.50
2018-10-03T16:25:31.986Z,15.40
2018-10-03T16:28:00.523Z,15.40
2018-10-03T16:30:29.041Z,15.40
2018-10-03T16:32:57.519Z,15.40
2018-10-03T16:35:26.012Z,15.40
2018-10-03T16:37:54.606Z,15.40
2018-10-03T16:40:23.134Z,15.40
2018-10-03T16:42:52.510Z,15.40
2018-10-03T16:45:21.004Z,15.30
2018-10-03T16:47:49.496Z,15.30
2018-10-03T16:50:17.995Z,15.20
2018-10-03T16:52:46.469Z,15.20
2018-10-03T16:55:14.984Z,15.10
2018-10-03T16:57:43.459Z,15.10
2018-10-03T17:00:12.965Z,15.10
2018-10-03T17:02:41.736Z,15.10
2018-10-03T17:05:10.322Z,15.10
2018-10-03T17:07:38.824Z,15.10
2018-10-03T17:10:07.660Z,15.00
2018-10-03T17:12:36.193Z,15.00
2018-10-03T17:15:04.734Z,15.00
2018-10-03T17:17:33.194Z,15.00
2018-10-03T17:20:01.697Z,15.00
2018-10-03T17:22:30.188Z,15.00
2018-10-03T17:24:58.710Z,14.90
2018-10-03T17:27:27.181Z,14.90
2018-10-03T17:29:55.680Z,14.90
2018-10-03T17:32:24.186Z,14.90
2018-10-03T17:34:52.651Z,14.90
2018-10-03T17:37:21.148Z,14.80
2018-10-03T17:39:49.814Z,14.70
2018-10-03T17:42:18.325Z,14.70
2018-10-03T17:44:46.827Z,14.60
2018-10-03T17:47:15.320Z,14.60
2018-10-03T17:49:44.083Z,14.60
2018-10-03T17:52:12.591Z,14.50
2018-10-03T17:54:41.111Z,14.50
2018-10-03T17:57:09.635Z,14.40
2018-10-03T17:59:38.146Z,14.40
2018-10-03T18:02:09.087Z,14.40
2018-10-03T18:04:37.644Z,14.30
2018-10-03T18:07:06.239Z,14.30
2018-10-03T18:09:34.753Z,14.30
2018-10-03T18:12:03.233Z,14.30
2018-10-03T18:14:31.739Z,14.30
2018-10-03T18:17:00.227Z,14.30
2018-10-03T18:19:28.728Z,14.30
2018-10-03T18:21:57.280Z,14.30
2018-10-03T18:24:25.737Z,14.30
2018-10-03T18:26:54.273Z,14.30
2018-10-03T18:29:22.847Z,14.30
2018-10-03T18:31:51.391Z,14.20
2018-10-03T18:34:20.002Z,14.20
2018-10-03T18:36:48.696Z,14.20
2018-10-03T18:39:17.560Z,14.10
2018-10-03T18:41:46.439Z,14.10
2018-10-03T18:44:15.261Z,14.10
2018-10-03T18:46:44.101Z,14.00
2018-10-03T18:49:12.942Z,14.10
2018-10-03T18:51:41.771Z,14.10
2018-10-03T18:54:10.582Z,14.10
2018-10-03T18:56:39.420Z,14.10
2018-10-03T18:59:08.300Z,14.00
2018-10-03T19:01:37.124Z,14.00
2018-10-03T19:04:05.945Z,14.00
2018-10-03T19:06:34.797Z,14.00
2018-10-03T19:09:05.367Z,13.90
2018-10-03T19:11:34.189Z,13.90
2018-10-03T19:14:03.019Z,13.80
2018-10-03T19:16:31.769Z,13.80
2018-10-03T19:19:00.571Z,13.80
2018-10-03T19:21:29.402Z,13.80
2018-10-03T19:23:58.198Z,13.80
2018-10-03T19:26:27.110Z,13.80
2018-10-03T19:28:55.930Z,13.80
2018-10-03T19:31:24.749Z,13.90
2018-10-03T19:33:53.663Z,13.90
2018-10-03T19:36:22.455Z,13.90
2018-10-03T19:38:51.219Z,13.90
2018-10-03T19:41:20.125Z,13.80
2018-10-03T19:43:48.711Z,13.80
2018-10-03T19:46:17.271Z,13.80
2018-10-03T19:48:45.969Z,13.70
2018-10-03T19:51:14.490Z,13.60
2018-10-03T19:53:43.269Z,13.50
2018-10-03T19:56:11.763Z,13.40
2018-10-03T19:58:40.254Z,13.30
2018-10-03T20:01:08.867Z,13.30
2018-10-03T20:03:37.394Z,13.20
2018-10-03T20:06:05.953Z,13.20
2018-10-03T20:08:34.528Z,13.10
2018-10-03T20:11:03.055Z,13.00
2018-10-03T20:13:31.539Z,12.90
2018-10-03T20:16:00.047Z,12.90
2018-10-03T20:18:28.554Z,12.80
2018-10-03T20:20:57.058Z,12.80
2018-10-03T20:23:25.563Z,12.80
2018-10-03T20:25:54.078Z,12.80
2018-10-03T20:28:22.562Z,12.80
2018-10-03T20:30:51.064Z,12.70
2018-10-03T20:33:19.560Z,12.60
2018-10-03T20:35:48.079Z,12.60
2018-10-03T20:38:16.553Z,12.50
2018-10-03T20:40:45.081Z,12.50
2018-10-03T20:43:13.592Z,12.40
2018-10-03T20:45:42.163Z,12.40
2018-10-03T20:48:10.722Z,12.40
2018-10-03T20:50:39.321Z,12.40
2018-10-03T20:53:07.841Z,12.40
2018-10-03T20:55:36.361Z,12.40
2018-10-03T20:58:04.875Z,12.40
2018-10-03T21:00:33.366Z,12.50
2018-10-03T21:03:01.917Z,12.40
2018-10-03T21:05:30.436Z,12.40
2018-10-03T21:07:58.952Z,12.40
2018-10-03T21:10:27.477Z,12.40
2018-10-03T21:12:56.253Z,12.40
2018-10-03T21:15:24.755Z,12.40
2018-10-03T21:17:53.252Z,12.40
2018-10-03T21:20:21.733Z,12.40
2018-10-03T21:22:50.200Z,12.40
2018-10-03T21:25:18.686Z,12.40
2018-10-03T21:27:47.210Z,12.40
2018-10-03T21:30:15.730Z,12.30
2018-10-03T21:32:44.257Z,12.30
2018-10-03T21:35:12.768Z,12.30
2018-10-03T21:37:41.252Z,12.40
2018-10-03T21:40:09.760Z,12.50
2018-10-03T21:42:38.256Z,12.50
2018-10-03T21:45:07.149Z,12.50
2018-10-03T21:47:35.635Z,12.50
2018-10-03T21:50:04.695Z,12.50
2018-10-03T21:52:33.551Z,12.50
2018-10-03T21:55:02.103Z,12.50
2018-10-03T21:57:30.584Z,12.50
2018-10-03T21:59:59.143Z,12.50
2018-10-03T22:02:27.696Z,12.40
2018-10-03T22:04:56.184Z,12.40
2018-10-03T22:07:24.675Z,12.30
2018-10-03T22:09:53.160Z,12.30
2018-10-03T22:12:21.659Z,12.30
2018-10-03T22:14:50.151Z,12.20
2018-10-03T22:17:24.121Z,12.20
2018-10-03T22:19:53.771Z,12.20
2018-10-03T22:22:22.271Z,12.30
2018-10-03T22:24:50.800Z,12.20
2018-10-03T22:27:19.305Z,12.20
2018-10-03T22:29:48.381Z,12.10
2018-10-03T22:32:16.859Z,12.10
2018-10-03T22:34:45.368Z,12.10
2018-10-03T22:37:13.898Z,12.00
2018-10-03T22:39:42.431Z,12.00
2018-10-03T22:42:11.019Z,12.00
2018-10-03T22:44:39.537Z,12.00
2018-10-03T22:47:08.116Z,11.90
2018-10-03T22:49:36.656Z,11.80
2018-10-03T22:52:05.252Z,11.70
2018-10-03T22:54:33.747Z,11.60
2018-10-03T22:57:02.260Z,11.60
2018-10-03T22:59:30.742Z,11.60
2018-10-03T23:01:59.273Z,11.40
2018-10-03T23:04:28.149Z,11.40
2018-10-03T23:06:56.667Z,11.30
2018-10-03T23:09:25.188Z,11.30
2018-10-03T23:11:53.686Z,11.20
2018-10-03T23:14:22.169Z,11.20
2018-10-03T23:16:50.676Z,11.20
2018-10-03T23:19:19.164Z,11.10
2018-10-03T23:21:47.650Z,11.20
2018-10-03T23:24:16.152Z,11.20
2018-10-03T23:26:44.640Z,11.20
2018-10-03T23:29:13.149Z,11.30
2018-10-03T23:31:41.622Z,11.20
2018-10-03T23:34:10.132Z,11.20
2018-10-03T23:36:38.602Z,11.10
2018-10-03T23:39:09.040Z,11.00
2018-10-03T23:41:37.871Z,11.00
2018-10-03T23:44:06.427Z,10.90
2018-10-03T23:46:35.238Z,10.90
2018-10-03T23:49:03.823Z,10.90
2018-10-03T23:51:32.368Z,10.80
2018-10-03T23:54:00.835Z,10.80
2018-10-03T23:56:29.301Z,10.70
2018-10-03T23:58:57.866Z,10.70
